sensor_id;sensor_type;location;lat;lon;timestamp;temperature;humidity
7700;DHT22;3892;47.794;19.126;2023-04-24T00:02:12;21.50;33.30
7700;DHT22;3892;47.794;19.126;2023-04-24T00:04:41;21.50;33.40
7700;DHT22;3892;47.794;19.126;2023-04-24T00:07:11;21.40;32.40
7700;DHT22;3892;47.794;19.126;2023-04-24T00:09:39;21.40;31.90
7700;DHT22;3892;47.794;19.126;2023-04-24T00:12:09;21.40;31.10
7700;DHT22;3892;47.794;19.126;2023-04-24T00:14:37;21.30;30.90
7700;DHT22;3892;47.794;19.126;2023-04-24T00:17:05;21.20;31.00
7700;DHT22;3892;47.794;19.126;2023-04-24T00:19:33;21.10;30.80
7700;DHT22;3892;47.794;19.126;2023-04-24T00:22:02;21.10;30.80
7700;DHT22;3892;47.794;19.126;2023-04-24T00:24:30;21.00;30.70
7700;DHT22;3892;47.794;19.126;2023-04-24T00:26:58;21.00;30.80
7700;DHT22;3892;47.794;19.126;2023-04-24T00:29:28;21.00;30.80
7700;DHT22;3892;47.794;19.126;2023-04-24T00:31:57;21.10;31.00
7700;DHT22;3892;47.794;19.126;2023-04-24T00:34:25;21.10;30.90
7700;DHT22;3892;47.794;19.126;2023-04-24T00:36:53;21.20;31.20
7700;DHT22;3892;47.794;19.126;2023-04-24T00:39:21;21.20;31.60
7700;DHT22;3892;47.794;19.126;2023-04-24T00:41:50;21.20;32.30
7700;DHT22;3892;47.794;19.126;2023-04-24T00:44:19;21.20;32.50
7700;DHT22;3892;47.794;19.126;2023-04-24T00:46:49;21.30;32.60
7700;DHT22;3892;47.794;19.126;2023-04-24T00:49:22;21.30;32.40
7700;DHT22;3892;47.794;19.126;2023-04-24T00:51:50;21.30;34.50
7700;DHT22;3892;47.794;19.126;2023-04-24T00:54:18;21.20;35.00
7700;DHT22;3892;47.794;19.126;2023-04-24T00:56:46;21.20;35.30
7700;DHT22;3892;47.794;19.126;2023-04-24T00:59:16;21.20;35.70
7700;DHT22;3892;47.794;19.126;2023-04-24T01:01:45;21.20;36.10
7700;DHT22;3892;47.794;19.126;2023-04-24T01:04:14;21.10;36.70
7700;DHT22;3892;47.794;19.126;2023-04-24T01:06:45;21.10;36.30
7700;DHT22;3892;47.794;19.126;2023-04-24T01:09:13;21.10;36.20
7700;DHT22;3892;47.794;19.126;2023-04-24T01:11:42;21.00;36.00
7700;DHT22;3892;47.794;19.126;2023-04-24T01:14:11;21.00;36.10
7700;DHT22;3892;47.794;19.126;2023-04-24T01:16:39;21.00;36.50
7700;DHT22;3892;47.794;19.126;2023-04-24T01:19:10;21.00;36.80
7700;DHT22;3892;47.794;19.126;2023-04-24T01:21:40;21.00;37.10
7700;DHT22;3892;47.794;19.126;2023-04-24T01:24:11;21.00;37.20
7700;DHT22;3892;47.794;19.126;2023-04-24T01:26:39;20.90;37.30
7700;DHT22;3892;47.794;19.126;2023-04-24T01:29:07;20.90;37.60
7700;DHT22;3892;47.794;19.126;2023-04-24T01:31:37;20.90;37.80
7700;DHT22;3892;47.794;19.126;2023-04-24T01:34:05;20.80;37.70
7700;DHT22;3892;47.794;19.126;2023-04-24T01:36:35;20.90;38.10
7700;DHT22;3892;47.794;19.126;2023-04-24T01:39:03;20.90;38.10
7700;DHT22;3892;47.794;19.126;2023-04-24T01:41:32;20.80;36.10
7700;DHT22;3892;47.794;19.126;2023-04-24T01:44:01;20.90;35.40
7700;DHT22;3892;47.794;19.126;2023-04-24T01:46:29;20.90;36.60
7700;DHT22;3892;47.794;19.126;2023-04-24T01:48:59;20.80;37.30
7700;DHT22;3892;47.794;19.126;2023-04-24T01:51:28;20.80;36.90
7700;DHT22;3892;47.794;19.126;2023-04-24T01:53:56;20.80;36.90
7700;DHT22;3892;47.794;19.126;2023-04-24T01:56:25;20.70;36.60
7700;DHT22;3892;47.794;19.126;2023-04-24T01:58:58;20.60;36.50
7700;DHT22;3892;47.794;19.126;2023-04-24T02:01:27;20.50;36.30
7700;DHT22;3892;47.794;19.126;2023-04-24T02:03:55;20.50;36.20
7700;DHT22;3892;47.794;19.126;2023-04-24T02:06:23;20.50;36.30
7700;DHT22;3892;47.794;19.126;2023-04-24T02:08:51;20.60;36.00
7700;DHT22;3892;47.794;19.126;2023-04-24T02:11:19;20.60;35.40
7700;DHT22;3892;47.794;19.126;2023-04-24T02:13:47;20.70;36.30
7700;DHT22;3892;47.794;19.126;2023-04-24T02:16:17;20.70;36.60
7700;DHT22;3892;47.794;19.126;2023-04-24T02:18:45;20.80;36.90
7700;DHT22;3892;47.794;19.126;2023-04-24T02:21:13;20.80;37.50
7700;DHT22;3892;47.794;19.126;2023-04-24T02:23:41;20.90;37.70
7700;DHT22;3892;47.794;19.126;2023-04-24T02:26:10;20.80;37.60
7700;DHT22;3892;47.794;19.126;2023-04-24T02:28:38;20.80;37.60
7700;DHT22;3892;47.794;19.126;2023-04-24T02:31:06;20.80;37.50
7700;DHT22;3892;47.794;19.126;2023-04-24T02:33:36;20.80;37.40
7700;DHT22;3892;47.794;19.126;2023-04-24T02:36:04;20.90;37.50
7700;DHT22;3892;47.794;19.126;2023-04-24T02:38:32;20.90;37.10
7700;DHT22;3892;47.794;19.126;2023-04-24T02:41:00;20.80;36.90
7700;DHT22;3892;47.794;19.126;2023-04-24T02:43:30;20.80;37.00
7700;DHT22;3892;47.794;19.126;2023-04-24T02:45:59;20.80;36.80
7700;DHT22;3892;47.794;19.126;2023-04-24T02:48:27;20.70;36.30
7700;DHT22;3892;47.794;19.126;2023-04-24T02:50:56;20.60;35.90
7700;DHT22;3892;47.794;19.126;2023-04-24T02:53:25;20.60;35.90
7700;DHT22;3892;47.794;19.126;2023-04-24T02:55:53;20.60;36.70
7700;DHT22;3892;47.794;19.126;2023-04-24T02:58:21;20.40;37.40
7700;DHT22;3892;47.794;19.126;2023-04-24T03:00:53;20.30;38.10
7700;DHT22;3892;47.794;19.126;2023-04-24T03:03:21;20.30;38.50
7700;DHT22;3892;47.794;19.126;2023-04-24T03:05:50;20.20;38.70
7700;DHT22;3892;47.794;19.126;2023-04-24T03:08:20;20.20;38.80
7700;DHT22;3892;47.794;19.126;2023-04-24T03:10:48;20.20;39.10
7700;DHT22;3892;47.794;19.126;2023-04-24T03:13:16;20.30;38.50
7700;DHT22;3892;47.794;19.126;2023-04-24T03:15:44;20.30;37.70
7700;DHT22;3892;47.794;19.126;2023-04-24T03:18:13;20.40;36.70
7700;DHT22;3892;47.794;19.126;2023-04-24T03:20:41;20.40;36.90
7700;DHT22;3892;47.794;19.126;2023-04-24T03:23:10;20.40;36.80
7700;DHT22;3892;47.794;19.126;2023-04-24T03:25:39;20.50;37.00
7700;DHT22;3892;47.794;19.126;2023-04-24T03:28:07;20.50;37.10
7700;DHT22;3892;47.794;19.126;2023-04-24T03:30:35;20.50;37.00
7700;DHT22;3892;47.794;19.126;2023-04-24T03:33:03;20.40;37.40
7700;DHT22;3892;47.794;19.126;2023-04-24T03:35:31;20.40;37.50
7700;DHT22;3892;47.794;19.126;2023-04-24T03:37:59;20.40;37.60
7700;DHT22;3892;47.794;19.126;2023-04-24T03:40:27;20.40;37.70
7700;DHT22;3892;47.794;19.126;2023-04-24T03:42:57;20.50;37.60
7700;DHT22;3892;47.794;19.126;2023-04-24T03:45:25;20.50;37.60
7700;DHT22;3892;47.794;19.126;2023-04-24T03:47:53;20.50;37.40
7700;DHT22;3892;47.794;19.126;2023-04-24T03:50:22;20.50;37.90
7700;DHT22;3892;47.794;19.126;2023-04-24T03:52:50;20.40;38.50
7700;DHT22;3892;47.794;19.126;2023-04-24T03:55:18;20.40;38.80
7700;DHT22;3892;47.794;19.126;2023-04-24T03:57:46;20.50;39.10
7700;DHT22;3892;47.794;19.126;2023-04-24T04:00:16;20.50;38.90
7700;DHT22;3892;47.794;19.126;2023-04-24T04:02:45;20.50;38.90
7700;DHT22;3892;47.794;19.126;2023-04-24T04:05:13;20.50;38.20
7700;DHT22;3892;47.794;19.126;2023-04-24T04:07:41;20.50;38.50
7700;DHT22;3892;47.794;19.126;2023-04-24T04:10:10;20.50;38.30
7700;DHT22;3892;47.794;19.126;2023-04-24T04:12:38;20.40;37.90
7700;DHT22;3892;47.794;19.126;2023-04-24T04:15:06;20.40;37.70
7700;DHT22;3892;47.794;19.126;2023-04-24T04:17:36;20.40;37.50
7700;DHT22;3892;47.794;19.126;2023-04-24T04:20:05;20.40;37.50
7700;DHT22;3892;47.794;19.126;2023-04-24T04:22:36;20.40;37.10
7700;DHT22;3892;47.794;19.126;2023-04-24T04:25:04;20.30;36.60
7700;DHT22;3892;47.794;19.126;2023-04-24T04:27:33;20.40;37.00
7700;DHT22;3892;47.794;19.126;2023-04-24T04:30:02;20.30;35.90
7700;DHT22;3892;47.794;19.126;2023-04-24T04:32:31;20.30;36.10
7700;DHT22;3892;47.794;19.126;2023-04-24T04:35:02;20.30;36.60
7700;DHT22;3892;47.794;19.126;2023-04-24T04:37:31;20.40;36.60
7700;DHT22;3892;47.794;19.126;2023-04-24T04:40:00;20.40;36.40
7700;DHT22;3892;47.794;19.126;2023-04-24T04:42:28;20.50;36.40
7700;DHT22;3892;47.794;19.126;2023-04-24T04:44:56;20.50;36.60
7700;DHT22;3892;47.794;19.126;2023-04-24T04:47:25;20.60;36.60
7700;DHT22;3892;47.794;19.126;2023-04-24T04:49:53;20.60;36.60
7700;DHT22;3892;47.794;19.126;2023-04-24T04:52:22;20.60;36.80
7700;DHT22;3892;47.794;19.126;2023-04-24T04:54:52;20.60;36.40
7700;DHT22;3892;47.794;19.126;2023-04-24T04:57:20;20.60;36.10
7700;DHT22;3892;47.794;19.126;2023-04-24T04:59:49;20.60;36.30
7700;DHT22;3892;47.794;19.126;2023-04-24T05:02:17;20.60;36.50
7700;DHT22;3892;47.794;19.126;2023-04-24T05:04:45;20.60;36.70
7700;DHT22;3892;47.794;19.126;2023-04-24T05:07:13;20.60;36.90
7700;DHT22;3892;47.794;19.126;2023-04-24T05:09:42;20.60;36.70
7700;DHT22;3892;47.794;19.126;2023-04-24T05:12:11;20.50;35.80
7700;DHT22;3892;47.794;19.126;2023-04-24T05:14:39;20.50;36.10
7700;DHT22;3892;47.794;19.126;2023-04-24T05:17:07;20.40;35.90
7700;DHT22;3892;47.794;19.126;2023-04-24T05:19:35;20.30;36.00
7700;DHT22;3892;47.794;19.126;2023-04-24T05:22:05;20.20;35.80
7700;DHT22;3892;47.794;19.126;2023-04-24T05:24:33;20.10;36.20
7700;DHT22;3892;47.794;19.126;2023-04-24T05:27:03;20.00;36.30
7700;DHT22;3892;47.794;19.126;2023-04-24T05:29:32;20.00;36.50
7700;DHT22;3892;47.794;19.126;2023-04-24T05:32:00;19.90;36.80
7700;DHT22;3892;47.794;19.126;2023-04-24T05:34:28;19.90;37.00
7700;DHT22;3892;47.794;19.126;2023-04-24T05:36:57;19.90;37.50
7700;DHT22;3892;47.794;19.126;2023-04-24T05:39:25;20.00;37.10
7700;DHT22;3892;47.794;19.126;2023-04-24T05:41:53;20.10;37.00
7700;DHT22;3892;47.794;19.126;2023-04-24T05:44:23;20.10;36.90
7700;DHT22;3892;47.794;19.126;2023-04-24T05:46:51;20.10;37.10
7700;DHT22;3892;47.794;19.126;2023-04-24T05:49:19;20.10;37.10
7700;DHT22;3892;47.794;19.126;2023-04-24T05:51:47;20.10;37.40
7700;DHT22;3892;47.794;19.126;2023-04-24T05:54:15;20.10;37.40
7700;DHT22;3892;47.794;19.126;2023-04-24T05:56:50;20.20;37.50
7700;DHT22;3892;47.794;19.126;2023-04-24T05:59:18;20.20;37.70
7700;DHT22;3892;47.794;19.126;2023-04-24T06:01:47;20.20;37.50
7700;DHT22;3892;47.794;19.126;2023-04-24T06:04:15;20.10;38.00
7700;DHT22;3892;47.794;19.126;2023-04-24T06:06:43;20.10;37.60
7700;DHT22;3892;47.794;19.126;2023-04-24T06:09:11;20.00;37.90
7700;DHT22;3892;47.794;19.126;2023-04-24T06:11:40;20.00;37.90
7700;DHT22;3892;47.794;19.126;2023-04-24T06:14:08;20.10;38.10
7700;DHT22;3892;47.794;19.126;2023-04-24T06:16:36;20.10;38.10
7700;DHT22;3892;47.794;19.126;2023-04-24T06:19:06;20.00;37.60
7700;DHT22;3892;47.794;19.126;2023-04-24T06:21:35;20.10;37.90
7700;DHT22;3892;47.794;19.126;2023-04-24T06:24:03;20.10;37.90
7700;DHT22;3892;47.794;19.126;2023-04-24T06:26:31;20.20;38.00
7700;DHT22;3892;47.794;19.126;2023-04-24T06:28:59;20.20;37.70
7700;DHT22;3892;47.794;19.126;2023-04-24T06:31:27;20.30;37.80
7700;DHT22;3892;47.794;19.126;2023-04-24T06:33:55;20.30;37.80
7700;DHT22;3892;47.794;19.126;2023-04-24T06:36:25;20.20;37.60
7700;DHT22;3892;47.794;19.126;2023-04-24T06:38:53;20.20;37.90
7700;DHT22;3892;47.794;19.126;2023-04-24T06:41:22;20.20;38.30
7700;DHT22;3892;47.794;19.126;2023-04-24T06:43:50;20.10;38.20
7700;DHT22;3892;47.794;19.126;2023-04-24T06:46:18;20.00;38.20
7700;DHT22;3892;47.794;19.126;2023-04-24T06:48:49;20.00;38.20
7700;DHT22;3892;47.794;19.126;2023-04-24T06:51:17;19.90;37.90
7700;DHT22;3892;47.794;19.126;2023-04-24T06:53:46;19.80;37.90
7700;DHT22;3892;47.794;19.126;2023-04-24T06:56:14;19.80;38.10
7700;DHT22;3892;47.794;19.126;2023-04-24T06:58:43;19.70;38.00
7700;DHT22;3892;47.794;19.126;2023-04-24T07:01:11;19.70;38.40
7700;DHT22;3892;47.794;19.126;2023-04-24T07:03:40;19.70;38.70
7700;DHT22;3892;47.794;19.126;2023-04-24T07:06:09;19.70;38.60
7700;DHT22;3892;47.794;19.126;2023-04-24T07:08:37;19.70;38.80
7700;DHT22;3892;47.794;19.126;2023-04-24T07:11:07;19.70;38.60
7700;DHT22;3892;47.794;19.126;2023-04-24T07:13:35;19.60;38.60
7700;DHT22;3892;47.794;19.126;2023-04-24T07:16:08;19.60;38.80
7700;DHT22;3892;47.794;19.126;2023-04-24T07:18:36;19.60;38.90
7700;DHT22;3892;47.794;19.126;2023-04-24T07:21:05;19.50;38.90
7700;DHT22;3892;47.794;19.126;2023-04-24T07:23:33;19.60;39.00
7700;DHT22;3892;47.794;19.126;2023-04-24T07:26:02;19.60;39.00
7700;DHT22;3892;47.794;19.126;2023-04-24T07:28:31;19.60;39.00
7700;DHT22;3892;47.794;19.126;2023-04-24T07:30:59;19.70;39.10
7700;DHT22;3892;47.794;19.126;2023-04-24T07:33:27;19.70;39.10
7700;DHT22;3892;47.794;19.126;2023-04-24T07:35:55;19.80;39.10
7700;DHT22;3892;47.794;19.126;2023-04-24T07:38:23;19.70;39.10
7700;DHT22;3892;47.794;19.126;2023-04-24T07:40:52;19.70;39.10
7700;DHT22;3892;47.794;19.126;2023-04-24T07:43:21;19.70;39.50
7700;DHT22;3892;47.794;19.126;2023-04-24T07:45:51;19.70;39.40
7700;DHT22;3892;47.794;19.126;2023-04-24T07:48:19;19.70;39.50
7700;DHT22;3892;47.794;19.126;2023-04-24T07:50:48;19.80;39.40
7700;DHT22;3892;47.794;19.126;2023-04-24T07:53:17;19.80;39.40
7700;DHT22;3892;47.794;19.126;2023-04-24T07:55:45;19.90;39.60
7700;DHT22;3892;47.794;19.126;2023-04-24T07:58:13;20.00;39.60
7700;DHT22;3892;47.794;19.126;2023-04-24T08:00:41;20.10;39.50
7700;DHT22;3892;47.794;19.126;2023-04-24T08:03:11;20.20;40.10
7700;DHT22;3892;47.794;19.126;2023-04-24T08:05:39;20.30;39.50
7700;DHT22;3892;47.794;19.126;2023-04-24T08:08:08;20.50;39.90
7700;DHT22;3892;47.794;19.126;2023-04-24T08:10:36;20.50;39.40
7700;DHT22;3892;47.794;19.126;2023-04-24T08:13:04;20.40;39.30
7700;DHT22;3892;47.794;19.126;2023-04-24T08:15:32;20.30;39.30
7700;DHT22;3892;47.794;19.126;2023-04-24T08:18:00;20.30;39.50
7700;DHT22;3892;47.794;19.126;2023-04-24T08:20:30;20.30;39.60
7700;DHT22;3892;47.794;19.126;2023-04-24T08:22:58;20.30;39.90
7700;DHT22;3892;47.794;19.126;2023-04-24T08:25:26;20.30;40.40
7700;DHT22;3892;47.794;19.126;2023-04-24T08:27:54;20.40;40.60
7700;DHT22;3892;47.794;19.126;2023-04-24T08:30:22;20.50;40.20
7700;DHT22;3892;47.794;19.126;2023-04-24T08:32:50;20.60;39.90
7700;DHT22;3892;47.794;19.126;2023-04-24T08:35:18;20.60;39.80
7700;DHT22;3892;47.794;19.126;2023-04-24T08:37:48;20.80;40.00
7700;DHT22;3892;47.794;19.126;2023-04-24T08:40:17;20.80;40.10
7700;DHT22;3892;47.794;19.126;2023-04-24T08:42:45;20.80;40.30
7700;DHT22;3892;47.794;19.126;2023-04-24T08:45:13;20.90;40.50
7700;DHT22;3892;47.794;19.126;2023-04-24T08:47:42;20.90;40.20
7700;DHT22;3892;47.794;19.126;2023-04-24T08:50:11;20.90;40.40
7700;DHT22;3892;47.794;19.126;2023-04-24T08:52:39;21.00;40.60
7700;DHT22;3892;47.794;19.126;2023-04-24T08:55:11;21.20;41.10
7700;DHT22;3892;47.794;19.126;2023-04-24T08:57:39;21.40;41.50
7700;DHT22;3892;47.794;19.126;2023-04-24T09:00:08;21.40;40.30
7700;DHT22;3892;47.794;19.126;2023-04-24T09:02:39;21.50;40.40
7700;DHT22;3892;47.794;19.126;2023-04-24T09:05:10;21.50;41.10
7700;DHT22;3892;47.794;19.126;2023-04-24T09:07:39;21.60;40.30
7700;DHT22;3892;47.794;19.126;2023-04-24T09:10:11;21.60;40.40
7700;DHT22;3892;47.794;19.126;2023-04-24T09:12:39;21.60;40.20
7700;DHT22;3892;47.794;19.126;2023-04-24T09:15:09;21.50;40.10
7700;DHT22;3892;47.794;19.126;2023-04-24T09:17:37;21.50;40.40
7700;DHT22;3892;47.794;19.126;2023-04-24T09:20:06;21.50;40.40
7700;DHT22;3892;47.794;19.126;2023-04-24T09:22:35;21.40;40.70
7700;DHT22;3892;47.794;19.126;2023-04-24T09:25:04;21.40;40.80
7700;DHT22;3892;47.794;19.126;2023-04-24T09:27:35;21.40;40.90
7700;DHT22;3892;47.794;19.126;2023-04-24T09:30:03;21.40;40.90
7700;DHT22;3892;47.794;19.126;2023-04-24T09:32:31;21.40;41.30
7700;DHT22;3892;47.794;19.126;2023-04-24T09:35:07;21.50;41.40
7700;DHT22;3892;47.794;19.126;2023-04-24T09:37:38;21.60;41.40
7700;DHT22;3892;47.794;19.126;2023-04-24T09:40:11;21.70;42.20
7700;DHT22;3892;47.794;19.126;2023-04-24T09:42:43;21.90;41.40
7700;DHT22;3892;47.794;19.126;2023-04-24T09:45:12;21.90;41.80
7700;DHT22;3892;47.794;19.126;2023-04-24T09:47:41;22.00;41.50
7700;DHT22;3892;47.794;19.126;2023-04-24T09:50:10;22.00;40.90
7700;DHT22;3892;47.794;19.126;2023-04-24T09:52:43;22.10;41.20
7700;DHT22;3892;47.794;19.126;2023-04-24T09:55:15;22.20;41.60
7700;DHT22;3892;47.794;19.126;2023-04-24T09:57:49;22.20;40.80
7700;DHT22;3892;47.794;19.126;2023-04-24T10:00:20;22.20;40.80
7700;DHT22;3892;47.794;19.126;2023-04-24T10:02:56;22.10;40.90
7700;DHT22;3892;47.794;19.126;2023-04-24T10:05:27;22.20;41.30
7700;DHT22;3892;47.794;19.126;2023-04-24T10:08:01;22.20;41.40
7700;DHT22;3892;47.794;19.126;2023-04-24T10:10:30;22.30;40.80
7700;DHT22;3892;47.794;19.126;2023-04-24T10:13:00;22.30;40.90
7700;DHT22;3892;47.794;19.126;2023-04-24T10:15:30;22.40;40.90
7700;DHT22;3892;47.794;19.126;2023-04-24T10:17:59;22.50;41.30
7700;DHT22;3892;47.794;19.126;2023-04-24T10:20:28;22.60;41.30
7700;DHT22;3892;47.794;19.126;2023-04-24T10:22:58;22.50;40.80
7700;DHT22;3892;47.794;19.126;2023-04-24T10:25:28;22.60;41.20
7700;DHT22;3892;47.794;19.126;2023-04-24T10:27:57;22.70;41.20
7700;DHT22;3892;47.794;19.126;2023-04-24T10:30:29;22.70;40.80
7700;DHT22;3892;47.794;19.126;2023-04-24T10:32:59;22.70;41.40
7700;DHT22;3892;47.794;19.126;2023-04-24T10:35:30;22.70;41.40
7700;DHT22;3892;47.794;19.126;2023-04-24T10:38:03;22.80;41.60
7700;DHT22;3892;47.794;19.126;2023-04-24T10:40:35;22.80;41.60
7700;DHT22;3892;47.794;19.126;2023-04-24T10:43:04;22.80;41.70
7700;DHT22;3892;47.794;19.126;2023-04-24T10:45:36;22.90;41.70
7700;DHT22;3892;47.794;19.126;2023-04-24T10:48:06;22.90;40.90
7700;DHT22;3892;47.794;19.126;2023-04-24T10:50:45;22.90;40.60
7700;DHT22;3892;47.794;19.126;2023-04-24T10:53:16;22.90;40.50
7700;DHT22;3892;47.794;19.126;2023-04-24T10:55:47;22.90;40.90
7700;DHT22;3892;47.794;19.126;2023-04-24T10:58:16;23.00;41.40
7700;DHT22;3892;47.794;19.126;2023-04-24T11:00:56;23.00;41.40
7700;DHT22;3892;47.794;19.126;2023-04-24T11:03:26;23.00;41.40
7700;DHT22;3892;47.794;19.126;2023-04-24T11:05:57;23.00;41.10
7700;DHT22;3892;47.794;19.126;2023-04-24T11:08:30;23.00;40.80
7700;DHT22;3892;47.794;19.126;2023-04-24T11:11:03;22.90;40.80
7700;DHT22;3892;47.794;19.126;2023-04-24T11:14:00;22.90;41.00
7700;DHT22;3892;47.794;19.126;2023-04-24T11:16:31;22.90;40.70
7700;DHT22;3892;47.794;19.126;2023-04-24T11:19:02;22.90;41.60
7700;DHT22;3892;47.794;19.126;2023-04-24T11:21:31;22.80;41.40
7700;DHT22;3892;47.794;19.126;2023-04-24T11:24:28;22.70;41.80
7700;DHT22;3892;47.794;19.126;2023-04-24T11:26:59;22.70;39.80
7700;DHT22;3892;47.794;19.126;2023-04-24T11:29:46;22.70;38.50
7700;DHT22;3892;47.794;19.126;2023-04-24T11:32:23;22.60;38.40
7700;DHT22;3892;47.794;19.126;2023-04-24T11:34:53;22.60;38.80
7700;DHT22;3892;47.794;19.126;2023-04-24T11:37:22;22.50;38.30
7700;DHT22;3892;47.794;19.126;2023-04-24T11:39:52;22.40;38.60
7700;DHT22;3892;47.794;19.126;2023-04-24T11:42:21;22.30;38.80
7700;DHT22;3892;47.794;19.126;2023-04-24T11:44:52;22.10;39.20
7700;DHT22;3892;47.794;19.126;2023-04-24T11:47:27;22.10;39.60
7700;DHT22;3892;47.794;19.126;2023-04-24T11:49:56;22.10;39.40
7700;DHT22;3892;47.794;19.126;2023-04-24T11:52:24;22.20;39.70
7700;DHT22;3892;47.794;19.126;2023-04-24T11:54:52;22.20;39.50
7700;DHT22;3892;47.794;19.126;2023-04-24T11:57:20;22.10;39.60
7700;DHT22;3892;47.794;19.126;2023-04-24T11:59:49;22.10;39.70
7700;DHT22;3892;47.794;19.126;2023-04-24T12:02:23;22.10;39.80
7700;DHT22;3892;47.794;19.126;2023-04-24T12:04:52;22.10;40.10
7700;DHT22;3892;47.794;19.126;2023-04-24T12:07:21;22.10;40.00
7700;DHT22;3892;47.794;19.126;2023-04-24T12:09:54;22.10;40.20
7700;DHT22;3892;47.794;19.126;2023-04-24T12:12:25;22.20;40.10
7700;DHT22;3892;47.794;19.126;2023-04-24T12:14:55;22.10;40.00
7700;DHT22;3892;47.794;19.126;2023-04-24T12:17:29;22.10;40.10
7700;DHT22;3892;47.794;19.126;2023-04-24T12:19:58;22.10;39.90
7700;DHT22;3892;47.794;19.126;2023-04-24T12:22:28;22.10;39.80
7700;DHT22;3892;47.794;19.126;2023-04-24T12:24:58;22.10;40.00
7700;DHT22;3892;47.794;19.126;2023-04-24T12:27:29;22.10;40.10
7700;DHT22;3892;47.794;19.126;2023-04-24T12:29:58;22.20;40.00
7700;DHT22;3892;47.794;19.126;2023-04-24T12:32:28;22.20;40.00
7700;DHT22;3892;47.794;19.126;2023-04-24T12:34:56;22.30;40.00
7700;DHT22;3892;47.794;19.126;2023-04-24T12:37:26;22.30;39.80
7700;DHT22;3892;47.794;19.126;2023-04-24T12:40:05;22.30;39.90
7700;DHT22;3892;47.794;19.126;2023-04-24T12:42:34;22.30;39.90
7700;DHT22;3892;47.794;19.126;2023-04-24T12:45:04;22.30;40.20
7700;DHT22;3892;47.794;19.126;2023-04-24T12:47:34;22.30;40.70
7700;DHT22;3892;47.794;19.126;2023-04-24T12:50:03;22.40;40.90
7700;DHT22;3892;47.794;19.126;2023-04-24T12:52:34;22.40;40.80
7700;DHT22;3892;47.794;19.126;2023-04-24T12:55:03;22.40;40.80
7700;DHT22;3892;47.794;19.126;2023-04-24T12:57:36;22.40;41.30
7700;DHT22;3892;47.794;19.126;2023-04-24T13:00:05;22.50;42.30
7700;DHT22;3892;47.794;19.126;2023-04-24T13:02:35;22.50;44.20
7700;DHT22;3892;47.794;19.126;2023-04-24T13:05:04;22.60;45.60
7700;DHT22;3892;47.794;19.126;2023-04-24T13:07:33;22.60;46.10
7700;DHT22;3892;47.794;19.126;2023-04-24T13:10:01;22.60;46.50
7700;DHT22;3892;47.794;19.126;2023-04-24T13:12:29;22.70;46.80
7700;DHT22;3892;47.794;19.126;2023-04-24T13:14:57;22.70;46.80
7700;DHT22;3892;47.794;19.126;2023-04-24T13:17:25;22.70;46.90
7700;DHT22;3892;47.794;19.126;2023-04-24T13:19:55;22.70;46.90
7700;DHT22;3892;47.794;19.126;2023-04-24T13:22:23;22.70;46.90
7700;DHT22;3892;47.794;19.126;2023-04-24T13:24:52;22.60;47.30
7700;DHT22;3892;47.794;19.126;2023-04-24T13:27:20;22.50;47.30
7700;DHT22;3892;47.794;19.126;2023-04-24T13:29:48;22.50;47.30
7700;DHT22;3892;47.794;19.126;2023-04-24T13:32:17;22.50;47.90
7700;DHT22;3892;47.794;19.126;2023-04-24T13:34:46;22.60;47.80
7700;DHT22;3892;47.794;19.126;2023-04-24T13:37:15;22.60;47.60
7700;DHT22;3892;47.794;19.126;2023-04-24T13:39:43;22.60;47.90
7700;DHT22;3892;47.794;19.126;2023-04-24T13:42:14;22.60;47.80
7700;DHT22;3892;47.794;19.126;2023-04-24T13:44:42;22.50;47.40
7700;DHT22;3892;47.794;19.126;2023-04-24T13:47:10;22.50;46.90
7700;DHT22;3892;47.794;19.126;2023-04-24T13:49:38;22.40;46.10
7700;DHT22;3892;47.794;19.126;2023-04-24T13:52:07;22.40;46.60
7700;DHT22;3892;47.794;19.126;2023-04-24T13:54:38;22.40;47.00
7700;DHT22;3892;47.794;19.126;2023-04-24T13:57:06;22.40;47.10
7700;DHT22;3892;47.794;19.126;2023-04-24T13:59:34;22.30;48.00
7700;DHT22;3892;47.794;19.126;2023-04-24T14:02:03;22.30;48.30
7700;DHT22;3892;47.794;19.126;2023-04-24T14:04:31;22.40;47.60
7700;DHT22;3892;47.794;19.126;2023-04-24T14:06:59;22.40;47.00
7700;DHT22;3892;47.794;19.126;2023-04-24T14:09:27;22.40;46.40
7700;DHT22;3892;47.794;19.126;2023-04-24T14:11:57;22.40;45.60
7700;DHT22;3892;47.794;19.126;2023-04-24T14:14:25;22.40;44.90
7700;DHT22;3892;47.794;19.126;2023-04-24T14:16:53;22.40;45.10
7700;DHT22;3892;47.794;19.126;2023-04-24T14:19:21;22.30;45.00
7700;DHT22;3892;47.794;19.126;2023-04-24T14:21:49;22.20;45.00
7700;DHT22;3892;47.794;19.126;2023-04-24T14:24:18;22.20;44.90
7700;DHT22;3892;47.794;19.126;2023-04-24T14:26:46;22.20;45.00
7700;DHT22;3892;47.794;19.126;2023-04-24T14:29:16;22.30;45.10
7700;DHT22;3892;47.794;19.126;2023-04-24T14:31:44;22.30;44.80
7700;DHT22;3892;47.794;19.126;2023-04-24T14:34:13;22.40;44.80
7700;DHT22;3892;47.794;19.126;2023-04-24T14:36:42;22.40;44.80
7700;DHT22;3892;47.794;19.126;2023-04-24T14:39:10;22.30;45.10
7700;DHT22;3892;47.794;19.126;2023-04-24T14:41:38;22.30;45.00
7700;DHT22;3892;47.794;19.126;2023-04-24T14:44:06;22.40;45.00
7700;DHT22;3892;47.794;19.126;2023-04-24T14:46:36;22.40;45.00
7700;DHT22;3892;47.794;19.126;2023-04-24T14:49:04;22.40;44.80
7700;DHT22;3892;47.794;19.126;2023-04-24T14:51:36;22.40;44.70
7700;DHT22;3892;47.794;19.126;2023-04-24T14:54:04;22.40;44.70
7700;DHT22;3892;47.794;19.126;2023-04-24T14:56:32;22.40;44.80
7700;DHT22;3892;47.794;19.126;2023-04-24T14:59:00;22.30;44.50
7700;DHT22;3892;47.794;19.126;2023-04-24T15:01:29;22.30;44.50
7700;DHT22;3892;47.794;19.126;2023-04-24T15:03:58;22.40;44.70
7700;DHT22;3892;47.794;19.126;2023-04-24T15:06:26;22.30;44.50
7700;DHT22;3892;47.794;19.126;2023-04-24T15:08:54;22.30;44.60
7700;DHT22;3892;47.794;19.126;2023-04-24T15:11:23;22.30;44.80
7700;DHT22;3892;47.794;19.126;2023-04-24T15:13:51;22.30;44.80
7700;DHT22;3892;47.794;19.126;2023-04-24T15:16:19;22.30;44.80
7700;DHT22;3892;47.794;19.126;2023-04-24T15:18:47;22.20;44.90
7700;DHT22;3892;47.794;19.126;2023-04-24T15:21:16;22.20;45.00
7700;DHT22;3892;47.794;19.126;2023-04-24T15:23:44;22.20;45.00
7700;DHT22;3892;47.794;19.126;2023-04-24T15:26:12;22.20;45.10
7700;DHT22;3892;47.794;19.126;2023-04-24T15:28:40;22.20;44.80
7700;DHT22;3892;47.794;19.126;2023-04-24T15:31:08;22.20;45.20
7700;DHT22;3892;47.794;19.126;2023-04-24T15:33:36;22.30;44.70
7700;DHT22;3892;47.794;19.126;2023-04-24T15:36:05;22.30;44.70
7700;DHT22;3892;47.794;19.126;2023-04-24T15:38:34;22.20;44.50
7700;DHT22;3892;47.794;19.126;2023-04-24T15:41:03;22.20;44.50
7700;DHT22;3892;47.794;19.126;2023-04-24T15:43:31;22.20;44.70
7700;DHT22;3892;47.794;19.126;2023-04-24T15:46:01;22.20;44.70
7700;DHT22;3892;47.794;19.126;2023-04-24T15:48:29;22.20;44.60
7700;DHT22;3892;47.794;19.126;2023-04-24T15:50:57;22.20;44.50
7700;DHT22;3892;47.794;19.126;2023-04-24T15:53:25;22.20;44.60
7700;DHT22;3892;47.794;19.126;2023-04-24T15:55:55;22.20;44.50
7700;DHT22;3892;47.794;19.126;2023-04-24T15:58:24;22.10;44.50